Accueil
METAR-TAF:

METAR-TAF

Aéroports :

Marseille, France

Aéroport de Marseille Provence, Marignane

latitude: 43-27N, longitude: 005-14E, altitude: 6 m

Observation

Le bulletin a été fait il y a 31 minutes, à 00:00 UTC
Vent 10 kt de nord-ouest
Température 4°C
Humidité 60%
Pression 1006 hPa
Visibilité: 9000 m

METAR: LFML 240000Z AUTO 32010KT 9000 NSC 04/M03 Q1006 NOSIG

Heure: 01:31 (00:31 UTC)

Prévision

Le bulletin a été fait il y a 4 heures et 31 minutes, à 20:00 UTC
Prévision valable du 23 à 21 UTC au 25 à 03 UTC
Vent 8 kt de nord/nord-ouest
Visibilité 10 km ou plus
pas de nuages en-dessous de 1500 mètres et pas de cumulonimbus.
Evoluant progressivement
du 24 à 08 UTC au 24 à 09 UTC
Ciel couvert à une hauteur de 3000 ft
Temporairement
du 24 à 09 UTC au 24 à 17 UTC
Nuages fragmentés à une hauteur de 1700 ft
pluie faible

TAF: LFML 232000Z 2321/2503 34008KT CAVOK BECMG 2408/2409 OVC030 TEMPO 2409/2417 -RA BKN017 TX09/2413Z TN03/2403Z

Observations et prévisions météorologiques de plus de 4000 aéroports (messages METAR et TAF).

Les stations disponibles sont représentées par des disques jaunes et rouges sur la carte.

Passer la souris dessus pour voir le nom de la station.

Cliquer dessus pour voir les observations et prévisions météorologiques.

Pour changer de carte: cliquez sur les boutons verts avec une croix noire pour zoomer, sur le bouton vert avec un tiret pour effectuer un zoom arrière, ou sur les flèches vertes pour les cartes adjacentes.


METAR-TAF: